sensor_id;sensor_type;location;lat;lon;timestamp;pressure;altitude;pressure_sealevel;temperature;humidity
48053;BME280;33824;51.600;5.718;2022-09-28T00:00:27;99438.03;;;8.95;97.64
48053;BME280;33824;51.600;5.718;2022-09-28T00:03:13;99437.03;;;8.96;98.28
48053;BME280;33824;51.600;5.718;2022-09-28T00:05:38;99444.78;;;8.98;98.18
48053;BME280;33824;51.600;5.718;2022-09-28T00:08:04;99438.06;;;9.02;98.43
48053;BME280;33824;51.600;5.718;2022-09-28T00:10:29;99435.63;;;9.00;98.07
48053;BME280;33824;51.600;5.718;2022-09-28T00:12:55;99437.44;;;9.00;98.55
48053;BME280;33824;51.600;5.718;2022-09-28T00:15:21;99434.97;;;8.98;98.46
48053;BME280;33824;51.600;5.718;2022-09-28T00:17:46;99418.66;;;9.01;98.46
48053;BME280;33824;51.600;5.718;2022-09-28T00:20:12;99425.81;;;9.01;98.30
48053;BME280;33824;51.600;5.718;2022-09-28T00:22:38;99413.72;;;8.98;98.74
48053;BME280;33824;51.600;5.718;2022-09-28T00:25:05;99427.22;;;8.97;98.81
48053;BME280;33824;51.600;5.718;2022-09-28T00:27:31;99419.25;;;8.97;98.70
48053;BME280;33824;51.600;5.718;2022-09-28T00:29:57;99422.09;;;8.95;99.19
48053;BME280;33824;51.600;5.718;2022-09-28T00:32:22;99417.78;;;8.94;99.36
48053;BME280;33824;51.600;5.718;2022-09-28T00:34:50;99430.06;;;8.95;99.32
48053;BME280;33824;51.600;5.718;2022-09-28T00:37:16;99417.78;;;8.94;99.46
48053;BME280;33824;51.600;5.718;2022-09-28T00:39:44;99414.94;;;8.96;99.24
48053;BME280;33824;51.600;5.718;2022-09-28T00:42:12;99414.50;;;8.92;98.94
48053;BME280;33824;51.600;5.718;2022-09-28T00:44:49;99414.84;;;8.83;98.84
48053;BME280;33824;51.600;5.718;2022-09-28T00:52:54;99418.75;;;8.87;99.28
48053;BME280;33824;51.600;5.718;2022-09-28T00:55:45;99410.34;;;8.77;98.95
48053;BME280;33824;51.600;5.718;2022-09-28T00:58:17;99405.28;;;8.88;99.09
48053;BME280;33824;51.600;5.718;2022-09-28T01:00:44;99407.34;;;8.93;99.40
48053;BME280;33824;51.600;5.718;2022-09-28T01:03:10;99410.22;;;8.98;98.91
48053;BME280;33824;51.600;5.718;2022-09-28T01:05:37;99397.16;;;8.96;99.30
48053;BME280;33824;51.600;5.718;2022-09-28T01:08:04;99395.72;;;9.00;99.02
48053;BME280;33824;51.600;5.718;2022-09-28T01:10:32;99395.50;;;9.02;98.84
48053;BME280;33824;51.600;5.718;2022-09-28T01:12:58;99392.91;;;9.08;98.81
48053;BME280;33824;51.600;5.718;2022-09-28T01:15:26;99392.69;;;9.10;98.34
48053;BME280;33824;51.600;5.718;2022-09-28T01:21:00;99398.63;;;9.05;98.13
48053;BME280;33824;51.600;5.718;2022-09-28T01:29:34;99399.72;;;9.24;97.90
48053;BME280;33824;51.600;5.718;2022-09-28T01:32:14;99390.69;;;9.19;97.66
48053;BME280;33824;51.600;5.718;2022-09-28T01:34:48;99388.00;;;9.19;97.50
48053;BME280;33824;51.600;5.718;2022-09-28T01:37:20;99391.69;;;9.18;97.94
48053;BME280;33824;51.600;5.718;2022-09-28T01:39:50;99385.34;;;9.12;97.77
48053;BME280;33824;51.600;5.718;2022-09-28T01:42:24;99396.56;;;9.01;97.78
48053;BME280;33824;51.600;5.718;2022-09-28T01:44:54;99398.81;;;9.04;97.79
48053;BME280;33824;51.600;5.718;2022-09-28T01:47:22;99400.22;;;9.00;98.02
48053;BME280;33824;51.600;5.718;2022-09-28T01:49:55;99402.03;;;8.93;98.40
48053;BME280;33824;51.600;5.718;2022-09-28T01:52:29;99399.38;;;8.93;98.28
48053;BME280;33824;51.600;5.718;2022-09-28T01:55:09;99401.81;;;8.94;98.13
48053;BME280;33824;51.600;5.718;2022-09-28T02:00:10;99400.03;;;9.01;98.11
48053;BME280;33824;51.600;5.718;2022-09-28T02:02:41;99403.28;;;8.97;98.32
48053;BME280;33824;51.600;5.718;2022-09-28T02:08:08;99402.13;;;8.72;99.12
48053;BME280;33824;51.600;5.718;2022-09-28T02:10:49;99402.53;;;8.68;98.80
48053;BME280;33824;51.600;5.718;2022-09-28T02:13:19;99402.78;;;8.74;98.53
48053;BME280;33824;51.600;5.718;2022-09-28T02:15:57;99401.09;;;8.66;98.52
48053;BME280;33824;51.600;5.718;2022-09-28T02:18:25;99398.69;;;8.71;99.08
48053;BME280;33824;51.600;5.718;2022-09-28T02:20:56;99399.03;;;8.68;99.19
48053;BME280;33824;51.600;5.718;2022-09-28T02:23:25;99402.38;;;8.77;99.16
48053;BME280;33824;51.600;5.718;2022-09-28T02:26:00;99398.69;;;8.78;98.64
48053;BME280;33824;51.600;5.718;2022-09-28T02:28:26;99398.31;;;8.87;99.21
48053;BME280;33824;51.600;5.718;2022-09-28T02:30:52;99404.06;;;8.91;99.19
48053;BME280;33824;51.600;5.718;2022-09-28T02:33:21;99398.56;;;8.92;99.13
48053;BME280;33824;51.600;5.718;2022-09-28T02:35:49;99409.03;;;9.00;99.25
48053;BME280;33824;51.600;5.718;2022-09-28T02:38:14;99408.19;;;9.00;98.78
48053;BME280;33824;51.600;5.718;2022-09-28T02:40:43;99408.63;;;9.03;99.12
48053;BME280;33824;51.600;5.718;2022-09-28T02:43:22;99401.63;;;8.96;98.73
48053;BME280;33824;51.600;5.718;2022-09-28T02:48:50;99408.19;;;8.93;99.19
48053;BME280;33824;51.600;5.718;2022-09-28T02:51:29;99407.34;;;8.93;99.13
48053;BME280;33824;51.600;5.718;2022-09-28T02:59:52;99396.72;;;8.86;100.00
48053;BME280;33824;51.600;5.718;2022-09-28T03:02:35;99397.34;;;8.95;99.97
48053;BME280;33824;51.600;5.718;2022-09-28T03:05:18;99392.00;;;8.88;100.00
48053;BME280;33824;51.600;5.718;2022-09-28T03:07:53;99400.41;;;8.98;99.83
48053;BME280;33824;51.600;5.718;2022-09-28T03:10:34;99397.91;;;8.90;99.90
48053;BME280;33824;51.600;5.718;2022-09-28T03:13:02;99399.81;;;9.03;99.87
48053;BME280;33824;51.600;5.718;2022-09-28T03:15:30;99406.59;;;9.05;99.46
48053;BME280;33824;51.600;5.718;2022-09-28T03:17:57;99394.94;;;9.06;99.28
48053;BME280;33824;51.600;5.718;2022-09-28T03:20:24;99392.91;;;9.08;99.59
48053;BME280;33824;51.600;5.718;2022-09-28T03:22:49;99397.00;;;9.11;99.52
48053;BME280;33824;51.600;5.718;2022-09-28T03:25:15;99402.31;;;9.11;99.22
48053;BME280;33824;51.600;5.718;2022-09-28T03:27:41;99403.72;;;9.07;99.45
48053;BME280;33824;51.600;5.718;2022-09-28T03:30:07;99405.56;;;9.06;99.44
48053;BME280;33824;51.600;5.718;2022-09-28T03:32:33;99401.47;;;9.04;99.22
48053;BME280;33824;51.600;5.718;2022-09-28T03:34:58;99401.47;;;9.04;99.49
48053;BME280;33824;51.600;5.718;2022-09-28T03:37:25;99407.63;;;9.04;99.85
48053;BME280;33824;51.600;5.718;2022-09-28T03:39:51;99406.19;;;9.08;99.65
48053;BME280;33824;51.600;5.718;2022-09-28T03:42:17;99401.72;;;9.09;99.54
48053;BME280;33824;51.600;5.718;2022-09-28T03:44:42;99411.13;;;9.11;99.60
48053;BME280;33824;51.600;5.718;2022-09-28T03:47:08;99403.38;;;9.17;99.64
48053;BME280;33824;51.600;5.718;2022-09-28T03:49:34;99401.31;;;9.19;99.07
48053;BME280;33824;51.600;5.718;2022-09-28T03:51:59;99403.38;;;9.17;99.10
48053;BME280;33824;51.600;5.718;2022-09-28T03:54:25;99408.88;;;9.15;99.02
48053;BME280;33824;51.600;5.718;2022-09-28T03:56:51;99405.81;;;9.18;98.80
48053;BME280;33824;51.600;5.718;2022-09-28T03:59:17;99406.63;;;9.19;98.64
48053;BME280;33824;51.600;5.718;2022-09-28T04:01:42;99408.88;;;9.22;98.54
48053;BME280;33824;51.600;5.718;2022-09-28T04:04:11;99404.56;;;9.14;98.21
48053;BME280;33824;51.600;5.718;2022-09-28T04:06:37;99406.03;;;9.17;98.56
48053;BME280;33824;51.600;5.718;2022-09-28T04:09:03;99407.88;;;9.16;98.35
48053;BME280;33824;51.600;5.718;2022-09-28T04:11:29;99413.59;;;9.13;98.35
48053;BME280;33824;51.600;5.718;2022-09-28T04:13:54;99414.59;;;9.12;98.33
48053;BME280;33824;51.600;5.718;2022-09-28T04:16:20;99408.25;;;9.13;97.97
48053;BME280;33824;51.600;5.718;2022-09-28T04:18:45;99412.53;;;9.07;98.17
48053;BME280;33824;51.600;5.718;2022-09-28T04:21:15;99413.13;;;9.03;97.86
48053;BME280;33824;51.600;5.718;2022-09-28T04:23:41;99408.78;;;8.95;97.86
48053;BME280;33824;51.600;5.718;2022-09-28T04:26:17;99408.50;;;8.77;98.44
48053;BME280;33824;51.600;5.718;2022-09-28T04:28:43;99404.44;;;8.81;98.67
48053;BME280;33824;51.600;5.718;2022-09-28T04:31:28;99408.69;;;8.76;98.71
48053;BME280;33824;51.600;5.718;2022-09-28T04:33:57;99410.09;;;8.72;98.47
48053;BME280;33824;51.600;5.718;2022-09-28T04:36:23;99406.84;;;8.70;98.50
48053;BME280;33824;51.600;5.718;2022-09-28T04:38:52;99404.72;;;8.58;98.72
48053;BME280;33824;51.600;5.718;2022-09-28T04:41:18;99407.19;;;8.60;98.90
48053;BME280;33824;51.600;5.718;2022-09-28T04:43:47;99410.63;;;8.54;98.72
48053;BME280;33824;51.600;5.718;2022-09-28T04:46:13;99402.03;;;8.52;98.85
48053;BME280;33824;51.600;5.718;2022-09-28T04:48:39;99404.88;;;8.50;99.03
48053;BME280;33824;51.600;5.718;2022-09-28T04:51:05;99400.56;;;8.43;98.89
48053;BME280;33824;51.600;5.718;2022-09-28T04:53:31;99394.63;;;8.41;99.29
48053;BME280;33824;51.600;5.718;2022-09-28T04:56:01;99410.72;;;8.33;99.34
48053;BME280;33824;51.600;5.718;2022-09-28T04:58:27;99409.69;;;8.34;99.68
48053;BME280;33824;51.600;5.718;2022-09-28T05:00:57;99405.75;;;8.30;99.43
48053;BME280;33824;51.600;5.718;2022-09-28T05:03:24;99414.97;;;8.34;99.74
48053;BME280;33824;51.600;5.718;2022-09-28T05:05:49;99410.06;;;8.31;99.40
48053;BME280;33824;51.600;5.718;2022-09-28T05:08:15;99413.25;;;8.26;99.91
48053;BME280;33824;51.600;5.718;2022-09-28T05:10:41;99417.56;;;8.27;99.75
48053;BME280;33824;51.600;5.718;2022-09-28T05:13:08;99418.56;;;8.26;99.41
48053;BME280;33824;51.600;5.718;2022-09-28T05:15:34;99420.63;;;8.24;99.61
48053;BME280;33824;51.600;5.718;2022-09-28T05:18:00;99423.06;;;8.26;99.35
48053;BME280;33824;51.600;5.718;2022-09-28T05:20:25;99423.44;;;8.23;99.25
48053;BME280;33824;51.600;5.718;2022-09-28T05:22:51;99425.09;;;8.24;99.24
48053;BME280;33824;51.600;5.718;2022-09-28T05:25:17;99431.25;;;8.24;99.49
48053;BME280;33824;51.600;5.718;2022-09-28T05:27:43;99430.84;;;8.27;100.00
48053;BME280;33824;51.600;5.718;2022-09-28T05:30:09;99420.28;;;8.34;99.74
48053;BME280;33824;51.600;5.718;2022-09-28T05:32:41;99431.84;;;8.26;99.80
48053;BME280;33824;51.600;5.718;2022-09-28T05:35:07;99428.03;;;8.29;100.00
48053;BME280;33824;51.600;5.718;2022-09-28T05:37:33;99431.53;;;8.29;100.00
48053;BME280;33824;51.600;5.718;2022-09-28T05:40:00;99428.38;;;8.26;100.00
48053;BME280;33824;51.600;5.718;2022-09-28T05:42:26;99428.16;;;8.20;100.00
48053;BME280;33824;51.600;5.718;2022-09-28T05:44:51;99423.03;;;8.19;99.74
48053;BME280;33824;51.600;5.718;2022-09-28T05:47:20;99427.31;;;8.20;100.00
48053;BME280;33824;51.600;5.718;2022-09-28T05:49:46;99427.50;;;8.18;99.46
48053;BME280;33824;51.600;5.718;2022-09-28T05:52:12;99435.69;;;8.17;100.00
48053;BME280;33824;51.600;5.718;2022-09-28T05:54:38;99440.22;;;8.23;99.90
48053;BME280;33824;51.600;5.718;2022-09-28T05:57:04;99431.84;;;8.26;99.87
48053;BME280;33824;51.600;5.718;2022-09-28T05:59:29;99442.16;;;8.29;100.00
48053;BME280;33824;51.600;5.718;2022-09-28T06:01:55;99442.63;;;8.39;100.00
48053;BME280;33824;51.600;5.718;2022-09-28T06:04:20;99442.66;;;8.46;100.00
48053;BME280;33824;51.600;5.718;2022-09-28T06:06:46;99446.16;;;8.53;100.00
48053;BME280;33824;51.600;5.718;2022-09-28T06:09:12;99444.88;;;8.70;100.00
48053;BME280;33824;51.600;5.718;2022-09-28T06:11:37;99445.97;;;8.89;100.00
48053;BME280;33824;51.600;5.718;2022-09-28T06:14:03;99443.56;;;8.94;100.00
48053;BME280;33824;51.600;5.718;2022-09-28T06:16:29;99450.50;;;8.95;100.00
48053;BME280;33824;51.600;5.718;2022-09-28T06:18:55;99454.78;;;8.89;100.00
48053;BME280;33824;51.600;5.718;2022-09-28T06:21:21;99458.69;;;8.93;99.49
48053;BME280;33824;51.600;5.718;2022-09-28T06:23:46;99455.38;;;8.91;99.59
48053;BME280;33824;51.600;5.718;2022-09-28T06:26:11;99460.72;;;8.91;99.51
48053;BME280;33824;51.600;5.718;2022-09-28T06:28:38;99460.13;;;8.96;99.45
48053;BME280;33824;51.600;5.718;2022-09-28T06:31:03;99465.84;;;8.93;99.41
48053;BME280;33824;51.600;5.718;2022-09-28T06:33:28;99475.06;;;8.97;99.19
48053;BME280;33824;51.600;5.718;2022-09-28T06:35:54;99470.75;;;8.96;99.37
48053;BME280;33824;51.600;5.718;2022-09-28T06:38:20;99475.28;;;9.02;99.17
48053;BME280;33824;51.600;5.718;2022-09-28T06:40:45;99475.09;;;9.03;99.04
48053;BME280;33824;51.600;5.718;2022-09-28T06:43:13;99475.91;;;9.04;98.90
48053;BME280;33824;51.600;5.718;2022-09-28T06:45:42;99475.91;;;9.04;98.88
48053;BME280;33824;51.600;5.718;2022-09-28T06:48:09;99481.66;;;9.07;99.05
48053;BME280;33824;51.600;5.718;2022-09-28T06:50:41;99475.28;;;9.02;98.70
48053;BME280;33824;51.600;5.718;2022-09-28T06:53:09;99481.25;;;9.10;98.55
48053;BME280;33824;51.600;5.718;2022-09-28T06:55:41;99483.75;;;9.19;98.12
48053;BME280;33824;51.600;5.718;2022-09-28T06:58:09;99485.50;;;8.98;98.07
48053;BME280;33824;51.600;5.718;2022-09-28T07:00:36;99487.06;;;9.27;98.58
48053;BME280;33824;51.600;5.718;2022-09-28T07:03:04;99484.50;;;9.53;98.28
48053;BME280;33824;51.600;5.718;2022-09-28T07:05:31;99482.09;;;9.65;97.76
48053;BME280;33824;51.600;5.718;2022-09-28T07:07:59;99481.06;;;9.66;97.57
48053;BME280;33824;51.600;5.718;2022-09-28T07:10:27;99484.56;;;9.80;97.33
48053;BME280;33824;51.600;5.718;2022-09-28T07:12:54;99487.88;;;9.88;97.30
48053;BME280;33824;51.600;5.718;2022-09-28T07:15:21;99493.63;;;9.98;97.13
48053;BME280;33824;51.600;5.718;2022-09-28T07:17:46;99490.94;;;10.05;96.94
48053;BME280;33824;51.600;5.718;2022-09-28T07:20:12;99489.53;;;10.09;96.42
48053;BME280;33824;51.600;5.718;2022-09-28T07:22:38;99491.16;;;10.10;96.53
48053;BME280;33824;51.600;5.718;2022-09-28T07:25:07;99494.25;;;10.07;95.87
48053;BME280;33824;51.600;5.718;2022-09-28T07:27:33;99492.84;;;10.24;96.57
48053;BME280;33824;51.600;5.718;2022-09-28T07:30:03;99496.53;;;10.36;96.46
48053;BME280;33824;51.600;5.718;2022-09-28T07:32:28;99508.22;;;10.35;95.59
48053;BME280;33824;51.600;5.718;2022-09-28T07:34:54;99511.50;;;10.50;95.71
48053;BME280;33824;51.600;5.718;2022-09-28T07:37:20;99500.63;;;10.58;95.60
48053;BME280;33824;51.600;5.718;2022-09-28T07:39:48;99506.19;;;10.44;95.13
48053;BME280;33824;51.600;5.718;2022-09-28T07:42:33;99509.47;;;10.52;95.64
48053;BME280;33824;51.600;5.718;2022-09-28T07:44:58;99512.13;;;10.72;95.33
48053;BME280;33824;51.600;5.718;2022-09-28T07:47:25;99517.00;;;10.88;94.83
48053;BME280;33824;51.600;5.718;2022-09-28T07:49:54;99520.06;;;10.98;94.00
48053;BME280;33824;51.600;5.718;2022-09-28T07:52:24;99523.13;;;11.08;93.52
48053;BME280;33824;51.600;5.718;2022-09-28T07:54:56;99522.91;;;11.10;92.88
48053;BME280;33824;51.600;5.718;2022-09-28T07:57:22;99528.91;;;10.79;90.09
48053;BME280;33824;51.600;5.718;2022-09-28T07:59:49;99524.72;;;11.16;92.43
48053;BME280;33824;51.600;5.718;2022-09-28T08:02:16;99517.94;;;11.33;91.90
48053;BME280;33824;51.600;5.718;2022-09-28T08:04:48;99530.19;;;11.47;91.58
48053;BME280;33824;51.600;5.718;2022-09-28T08:07:15;99524.38;;;11.64;91.39
48053;BME280;33824;51.600;5.718;2022-09-28T08:09:42;99527.47;;;11.54;89.97
48053;BME280;33824;51.600;5.718;2022-09-28T08:12:09;99528.25;;;11.68;90.19
48053;BME280;33824;51.600;5.718;2022-09-28T08:14:34;99530.25;;;11.85;89.77
48053;BME280;33824;51.600;5.718;2022-09-28T08:17:03;99525.44;;;12.00;89.81
48053;BME280;33824;51.600;5.718;2022-09-28T08:19:29;99529.06;;;12.13;89.46
48053;BME280;33824;51.600;5.718;2022-09-28T08:22:16;99529.19;;;12.24;89.35
48053;BME280;33824;51.600;5.718;2022-09-28T08:24:42;99531.34;;;12.34;89.04
48053;BME280;33824;51.600;5.718;2022-09-28T08:27:08;99535.19;;;12.44;88.61
48053;BME280;33824;51.600;5.718;2022-09-28T08:29:35;99538.72;;;12.63;88.35
48053;BME280;33824;51.600;5.718;2022-09-28T08:32:00;99545.63;;;12.77;87.82
48053;BME280;33824;51.600;5.718;2022-09-28T08:34:26;99541.69;;;12.80;87.58
48053;BME280;33824;51.600;5.718;2022-09-28T08:36:52;99543.19;;;12.94;87.17
48053;BME280;33824;51.600;5.718;2022-09-28T08:39:18;99538.13;;;13.11;87.05
48053;BME280;33824;51.600;5.718;2022-09-28T08:42:13;99547.28;;;12.96;84.18
48053;BME280;33824;51.600;5.718;2022-09-28T08:44:47;99546.72;;;13.13;85.64
48053;BME280;33824;51.600;5.718;2022-09-28T08:47:24;99544.75;;;13.26;85.54
48053;BME280;33824;51.600;5.718;2022-09-28T08:50:12;99552.56;;;13.46;84.65
48053;BME280;33824;51.600;5.718;2022-09-28T08:52:43;99549.94;;;13.58;85.58
48053;BME280;33824;51.600;5.718;2022-09-28T08:55:26;99563.59;;;13.13;81.50
48053;BME280;33824;51.600;5.718;2022-09-28T08:58:04;99564.09;;;12.79;83.63
48053;BME280;33824;51.600;5.718;2022-09-28T09:00:45;99566.25;;;13.20;84.14
48053;BME280;33824;51.600;5.718;2022-09-28T09:03:14;99566.97;;;13.45;84.78
48053;BME280;33824;51.600;5.718;2022-09-28T09:05:49;99571.97;;;13.60;83.44
48053;BME280;33824;51.600;5.718;2022-09-28T09:13:41;99569.19;;;14.14;84.31
48053;BME280;33824;51.600;5.718;2022-09-28T09:16:31;99569.09;;;14.21;83.06
48053;BME280;33824;51.600;5.718;2022-09-28T09:19:12;99572.50;;;13.98;79.59
48053;BME280;33824;51.600;5.718;2022-09-28T09:22:06;99576.72;;;13.76;79.51
48053;BME280;33824;51.600;5.718;2022-09-28T09:24:50;99571.88;;;13.84;80.24
48053;BME280;33824;51.600;5.718;2022-09-28T09:27:31;99574.56;;;14.14;81.10
48053;BME280;33824;51.600;5.718;2022-09-28T09:30:03;99570.13;;;14.38;81.11
48053;BME280;33824;51.600;5.718;2022-09-28T09:32:41;99569.66;;;14.41;80.62
48053;BME280;33824;51.600;5.718;2022-09-28T09:35:44;99567.84;;;14.53;80.06
48053;BME280;33824;51.600;5.718;2022-09-28T09:38:23;99573.81;;;14.90;80.74
48053;BME280;33824;51.600;5.718;2022-09-28T09:43:49;99583.34;;;14.63;79.06
48053;BME280;33824;51.600;5.718;2022-09-28T09:46:43;99580.09;;;14.84;77.25
48053;BME280;33824;51.600;5.718;2022-09-28T09:49:18;99583.63;;;15.08;76.36
48053;BME280;33824;51.600;5.718;2022-09-28T09:52:10;99588.28;;;15.24;76.94
48053;BME280;33824;51.600;5.718;2022-09-28T09:54:43;99587.81;;;15.38;78.08
48053;BME280;33824;51.600;5.718;2022-09-28T09:57:16;99587.00;;;15.03;76.92
48053;BME280;33824;51.600;5.718;2022-09-28T09:59:43;99592.97;;;14.94;78.24
48053;BME280;33824;51.600;5.718;2022-09-28T10:04:48;99587.47;;;15.35;76.89
48053;BME280;33824;51.600;5.718;2022-09-28T10:07:21;99589.25;;;15.06;76.40
48053;BME280;33824;51.600;5.718;2022-09-28T10:09:48;99585.38;;;15.14;78.29
48053;BME280;33824;51.600;5.718;2022-09-28T10:12:20;99582.91;;;15.24;77.40
48053;BME280;33824;51.600;5.718;2022-09-28T10:14:46;99579.88;;;15.44;76.82
48053;BME280;33824;51.600;5.718;2022-09-28T10:17:16;99590.03;;;15.30;75.88
48053;BME280;33824;51.600;5.718;2022-09-28T10:19:44;99576.72;;;15.47;75.49
48053;BME280;33824;51.600;5.718;2022-09-28T10:22:14;99573.91;;;15.42;74.46
48053;BME280;33824;51.600;5.718;2022-09-28T10:24:43;99573.25;;;15.86;75.14
48053;BME280;33824;51.600;5.718;2022-09-28T10:27:24;99568.69;;;15.87;74.48
48053;BME280;33824;51.600;5.718;2022-09-28T10:29:58;99575.66;;;15.48;74.47
48053;BME280;33824;51.600;5.718;2022-09-28T10:32:27;99577.69;;;15.29;74.66
48053;BME280;33824;51.600;5.718;2022-09-28T10:35:12;99581.88;;;15.25;74.94
48053;BME280;33824;51.600;5.718;2022-09-28T10:37:52;99575.69;;;15.36;74.30
48053;BME280;33824;51.600;5.718;2022-09-28T10:40:32;99573.06;;;15.64;75.24
48053;BME280;33824;51.600;5.718;2022-09-28T10:43:04;99574.50;;;15.67;74.26
48053;BME280;33824;51.600;5.718;2022-09-28T10:45:35;99573.88;;;15.65;74.05
48053;BME280;33824;51.600;5.718;2022-09-28T10:48:11;99575.22;;;15.91;72.01
48053;BME280;33824;51.600;5.718;2022-09-28T10:50:38;99568.53;;;16.21;73.14
48053;BME280;33824;51.600;5.718;2022-09-28T10:53:18;99572.25;;;16.32;70.62
48053;BME280;33824;51.600;5.718;2022-09-28T10:56:02;99571.88;;;16.12;69.15
48053;BME280;33824;51.600;5.718;2022-09-28T10:58:35;99573.63;;;16.35;71.08
48053;BME280;33824;51.600;5.718;2022-09-28T11:01:05;99579.63;;;16.53;70.54
48053;BME280;33824;51.600;5.718;2022-09-28T11:03:40;99567.25;;;16.69;68.94
48053;BME280;33824;51.600;5.718;2022-09-28T11:06:11;99562.44;;;16.88;69.94
48053;BME280;33824;51.600;5.718;2022-09-28T11:08:38;99565.19;;;17.09;70.21
48053;BME280;33824;51.600;5.718;2022-09-28T11:11:08;99561.75;;;17.52;69.58
48053;BME280;33824;51.600;5.718;2022-09-28T11:13:39;99562.28;;;17.71;66.76
48053;BME280;33824;51.600;5.718;2022-09-28T11:16:05;99565.72;;;17.66;67.89
48053;BME280;33824;51.600;5.718;2022-09-28T11:18:31;99558.81;;;17.54;67.86
48053;BME280;33824;51.600;5.718;2022-09-28T11:21:29;99561.69;;;17.47;66.29
48053;BME280;33824;51.600;5.718;2022-09-28T11:24:03;99551.44;;;17.88;67.83
48053;BME280;33824;51.600;5.718;2022-09-28T11:26:42;99551.59;;;18.03;65.34
48053;BME280;33824;51.600;5.718;2022-09-28T11:29:19;99550.81;;;18.07;64.13
48053;BME280;33824;51.600;5.718;2022-09-28T11:31:47;99560.13;;;17.73;65.83
48053;BME280;33824;51.600;5.718;2022-09-28T11:34:19;99563.72;;;17.18;64.75
48053;BME280;33824;51.600;5.718;2022-09-28T11:37:15;99560.31;;;16.90;65.96
48053;BME280;33824;51.600;5.718;2022-09-28T11:39:50;99559.47;;;17.22;68.60
48053;BME280;33824;51.600;5.718;2022-09-28T11:42:40;99557.81;;;17.38;67.23
48053;BME280;33824;51.600;5.718;2022-09-28T11:45:41;99550.28;;;17.40;60.89
48053;BME280;33824;51.600;5.718;2022-09-28T11:48:14;99552.66;;;17.37;66.34
48053;BME280;33824;51.600;5.718;2022-09-28T11:50:45;99557.72;;;17.71;65.70
48053;BME280;33824;51.600;5.718;2022-09-28T11:53:32;99556.72;;;17.39;64.20
48053;BME280;33824;51.600;5.718;2022-09-28T11:56:15;99547.81;;;17.39;67.44
48053;BME280;33824;51.600;5.718;2022-09-28T11:58:46;99554.84;;;17.40;65.50
48053;BME280;33824;51.600;5.718;2022-09-28T12:01:32;99551.28;;;17.34;65.14
48053;BME280;33824;51.600;5.718;2022-09-28T12:04:06;99549.53;;;17.06;66.00
48053;BME280;33824;51.600;5.718;2022-09-28T12:06:58;99549.88;;;16.60;62.30
48053;BME280;33824;51.600;5.718;2022-09-28T12:09:45;99548.78;;;16.44;62.89
48053;BME280;33824;51.600;5.718;2022-09-28T12:15:04;99557.78;;;16.66;66.02
48053;BME280;33824;51.600;5.718;2022-09-28T12:17:53;99559.53;;;16.27;64.52
48053;BME280;33824;51.600;5.718;2022-09-28T12:20:23;99557.59;;;16.40;66.62
48053;BME280;33824;51.600;5.718;2022-09-28T12:23:00;99560.63;;;16.43;67.18
48053;BME280;33824;51.600;5.718;2022-09-28T12:25:28;99565.78;;;16.33;67.20
48053;BME280;33824;51.600;5.718;2022-09-28T12:28:01;99566.97;;;16.09;68.22
48053;BME280;33824;51.600;5.718;2022-09-28T12:30:35;99563.03;;;16.00;68.86
48053;BME280;33824;51.600;5.718;2022-09-28T12:33:12;99564.03;;;15.82;68.29
48053;BME280;33824;51.600;5.718;2022-09-28T12:35:44;99570.31;;;15.88;67.86
48053;BME280;33824;51.600;5.718;2022-09-28T12:41:53;99564.38;;;16.59;66.64
48053;BME280;33824;51.600;5.718;2022-09-28T12:51:57;99555.00;;;17.50;64.33
48053;BME280;33824;51.600;5.718;2022-09-28T12:54:54;99554.72;;;17.30;61.54
48053;BME280;33824;51.600;5.718;2022-09-28T13:00:22;99550.69;;;17.32;65.86
48053;BME280;33824;51.600;5.718;2022-09-28T13:20:15;99558.06;;;15.17;77.72
48053;BME280;33824;51.600;5.718;2022-09-28T13:22:56;99554.28;;;15.53;78.36
48053;BME280;33824;51.600;5.718;2022-09-28T13:25:27;99552.25;;;15.71;78.57
48053;BME280;33824;51.600;5.718;2022-09-28T13:28:03;99556.25;;;15.69;79.01
48053;BME280;33824;51.600;5.718;2022-09-28T13:30:31;99550.94;;;15.22;78.76
48053;BME280;33824;51.600;5.718;2022-09-28T13:33:00;99558.88;;;15.17;78.99
48053;BME280;33824;51.600;5.718;2022-09-28T13:35:26;99560.50;;;15.30;79.27
48053;BME280;33824;51.600;5.718;2022-09-28T13:52:08;99554.59;;;16.08;74.93
48053;BME280;33824;51.600;5.718;2022-09-28T13:54:51;99560.09;;;16.29;70.84
48053;BME280;33824;51.600;5.718;2022-09-28T13:57:56;99570.34;;;16.61;72.49
48053;BME280;33824;51.600;5.718;2022-09-28T14:00:57;99583.97;;;16.71;67.38
48053;BME280;33824;51.600;5.718;2022-09-28T14:11:59;99612.44;;;14.89;66.85
48053;BME280;33824;51.600;5.718;2022-09-28T14:14:29;99612.44;;;14.89;67.70
48053;BME280;33824;51.600;5.718;2022-09-28T14:20:08;99624.69;;;14.44;67.81
48053;BME280;33824;51.600;5.718;2022-09-28T14:25:22;99614.91;;;15.02;68.25
48053;BME280;33824;51.600;5.718;2022-09-28T14:33:20;99601.22;;;15.73;65.43
48053;BME280;33824;51.600;5.718;2022-09-28T14:35:55;99598.03;;;15.88;64.24
48053;BME280;33824;51.600;5.718;2022-09-28T14:38:35;99596.69;;;16.02;65.32
48053;BME280;33824;51.600;5.718;2022-09-28T14:41:39;99583.56;;;16.34;65.50
48053;BME280;33824;51.600;5.718;2022-09-28T14:44:08;99585.19;;;16.63;65.92
48053;BME280;33824;51.600;5.718;2022-09-28T14:46:39;99591.38;;;16.64;65.17
48053;BME280;33824;51.600;5.718;2022-09-28T14:59:23;99613.03;;;16.12;64.70
48053;BME280;33824;51.600;5.718;2022-09-28T15:01:56;99614.75;;;16.18;65.50
48053;BME280;33824;51.600;5.718;2022-09-28T15:04:25;99621.47;;;16.04;66.44
48053;BME280;33824;51.600;5.718;2022-09-28T15:06:52;99631.38;;;15.29;65.22
48053;BME280;33824;51.600;5.718;2022-09-28T15:14:29;99630.28;;;14.83;66.03
48053;BME280;33824;51.600;5.718;2022-09-28T15:16:59;99640.16;;;14.60;66.72
48053;BME280;33824;51.600;5.718;2022-09-28T15:19:42;99645.66;;;14.35;66.28
48053;BME280;33824;51.600;5.718;2022-09-28T15:22:21;99653.69;;;14.17;67.69
48053;BME280;33824;51.600;5.718;2022-09-28T15:25:00;99649.69;;;14.08;67.11
48053;BME280;33824;51.600;5.718;2022-09-28T15:27:35;99655.78;;;13.97;67.97
48053;BME280;33824;51.600;5.718;2022-09-28T15:30:19;99655.50;;;14.05;68.46